map of CQD home
CQD - Airport
Location
City:  Shahre-Kord, Chahar Mahall va Bakhtiari, Iran
ICAO:OIFS
IATA:CQD

Details
Type:Airport (Aerodrome, Airfield)
Latitude:3217'50"N (32.297222)
Longitude:5050'32"E (50.842222)
Datum:WGS 1984
Elevation:6723 ft (2049 m)
Variation:3.97E (WMM2015 magnetic declination)
0.05 annual change
Runways:1
Longest:10819 × 148 ft (3298 × 45 m), paved

Time
Time Zone:UTC+3:30 (DST+4:30)
Local Time:

Weather
METAR:OIFS 190700Z 10004KT 9999 FEW040 SCT200 16/04 Q1028

Related Locations
Nearby:
Farthest:GMR: 11709 mi / 18844 km
Mangareva [Totegegie], Gambier Islands, PF

Find:

   beyond  
but within

Other Information
Maps:
NOTAMs:
Links:
Sources:

  
  • flag of Iran
  

Sectional Chart

Flight Planning
at skyvector.com

Satellite Image

Google Maps Satellite view

 

Copyright © 2004-2018 Karl L. Swartz. All rights reserved.
The Great Circle Mapper name and logo are trademarks of the Great Circle Mapper.
All other trademarks mentioned herein belong to their respective owners.
Please see credits for attibutions and further copyright information.

  Follow gcmap on Facebook Follow gcmap on Twitter Follow gcmap on Google+ GCmap on LinkedIn

hCard Microformat

Geo Microformat